createdAt,value
2022-09-01T00:00:18.855Z,5.97
2022-09-01T00:03:03.081Z,7.03
2022-09-01T00:05:34.209Z,6.78
2022-09-01T00:08:02.450Z,7.25
2022-09-01T00:10:31.530Z,5.47
2022-09-01T00:13:01.492Z,5.60
2022-09-01T00:15:29.989Z,8.95
2022-09-01T00:17:58.458Z,5.18
2022-09-01T00:20:27.715Z,10.07
2022-09-01T00:22:56.863Z,9.40
2022-09-01T00:25:28.003Z,7.68
2022-09-01T00:28:00.433Z,8.32
2022-09-01T00:30:28.873Z,7.22
2022-09-01T00:32:57.341Z,9.95
2022-09-01T00:35:28.833Z,5.93
2022-09-01T00:37:57.529Z,8.38
2022-09-01T00:40:26.194Z,8.23
2022-09-01T00:42:54.793Z,9.63
2022-09-01T00:45:26.130Z,7.80
2022-09-01T00:47:54.585Z,8.18
2022-09-01T00:50:25.017Z,6.03
2022-09-01T00:52:55.856Z,10.17
2022-09-01T00:58:00.093Z,5.20
2022-09-01T01:00:32.172Z,8.40
2022-09-01T01:03:00.762Z,5.82
2022-09-01T01:05:36.927Z,7.68
2022-09-01T01:08:08.351Z,4.47
2022-09-01T01:10:40.345Z,7.28
2022-09-01T01:15:45.140Z,6.50
2022-09-01T01:18:16.983Z,5.65
2022-09-01T01:21:29.056Z,6.03
2022-09-01T01:24:11.594Z,7.15
2022-09-01T01:26:40.069Z,9.68
2022-09-01T01:29:10.815Z,6.43
2022-09-01T01:31:39.912Z,8.70
2022-09-01T01:34:09.843Z,10.90
2022-09-01T01:36:39.124Z,7.80
2022-09-01T01:39:35.417Z,6.57
2022-09-01T01:42:09.548Z,9.02
2022-09-01T01:44:40.923Z,6.55
2022-09-01T01:47:13.211Z,5.57
2022-09-01T01:49:43.860Z,6.18
2022-09-01T01:52:17.490Z,7.47
2022-09-01T01:54:49.923Z,9.18
2022-09-01T01:59:49.606Z,6.70
2022-09-01T02:04:46.687Z,5.68
2022-09-01T02:07:18.132Z,6.30
2022-09-01T02:09:48.361Z,8.75
2022-09-01T02:12:19.784Z,8.02
2022-09-01T02:14:55.178Z,6.68
2022-09-01T02:17:24.203Z,9.50
2022-09-01T02:19:57.603Z,9.43
2022-09-01T02:22:25.849Z,7.85
2022-09-01T02:24:57.655Z,5.82
2022-09-01T02:27:27.048Z,5.10
2022-09-01T02:29:58.907Z,6.30
2022-09-01T02:32:27.180Z,6.03
2022-09-01T02:34:57.124Z,6.53
2022-09-01T02:37:30.063Z,10.68
2022-09-01T02:40:00.759Z,5.40
2022-09-01T02:42:29.796Z,8.05
2022-09-01T02:44:58.788Z,5.30
2022-09-01T02:47:29.726Z,7.40
2022-09-01T02:49:59.713Z,7.00
2022-09-01T02:52:29.866Z,6.95
2022-09-01T02:54:58.767Z,8.45
2022-09-01T02:57:28.140Z,7.78
2022-09-01T02:59:58.951Z,8.35
2022-09-01T03:02:31.583Z,8.02
2022-09-01T03:05:06.144Z,8.82
2022-09-01T03:07:38.019Z,7.45
2022-09-01T03:10:09.821Z,8.05
2022-09-01T03:12:40.734Z,8.65
2022-09-01T03:15:09.112Z,14.18
2022-09-01T03:17:41.956Z,7.18
2022-09-01T03:20:10.843Z,7.35
2022-09-01T03:22:39.382Z,8.18
2022-09-01T03:25:11.265Z,8.68
2022-09-01T03:27:39.698Z,6.30
2022-09-01T03:30:08.563Z,10.02
2022-09-01T03:32:36.882Z,7.40
2022-09-01T03:35:06.885Z,10.95
2022-09-01T03:37:36.395Z,8.13
2022-09-01T03:40:06.906Z,8.30
2022-09-01T03:42:37.526Z,8.07
2022-09-01T03:45:09.395Z,6.72
2022-09-01T03:47:40.234Z,6.32
2022-09-01T03:52:59.189Z,6.60
2022-09-01T03:55:36.197Z,9.38
2022-09-01T03:58:19.067Z,8.57
2022-09-01T04:00:56.978Z,7.57
2022-09-01T04:03:31.169Z,6.95
2022-09-01T04:06:02.814Z,8.48
2022-09-01T04:08:35.145Z,7.38
2022-09-01T04:11:14.060Z,8.07
2022-09-01T04:13:43.036Z,7.85
2022-09-01T04:16:41.854Z,10.68
2022-09-01T04:19:21.307Z,10.63
2022-09-01T04:21:51.869Z,6.25
2022-09-01T04:24:25.127Z,6.60
2022-09-01T04:26:54.539Z,10.45
2022-09-01T04:29:27.767Z,10.13
2022-09-01T04:32:04.157Z,7.32
2022-09-01T04:34:41.561Z,11.07
2022-09-01T04:37:15.505Z,10.52
2022-09-01T04:41:32.227Z,7.13
2022-09-01T04:44:05.699Z,9.25
2022-09-01T04:46:42.412Z,11.52
2022-09-01T04:49:19.369Z,8.52
2022-09-01T04:51:54.163Z,10.57
2022-09-01T04:54:24.211Z,7.78
2022-09-01T04:56:54.086Z,12.32
2022-09-01T04:59:24.468Z,14.55
2022-09-01T05:01:57.756Z,9.77
2022-09-01T05:04:28.150Z,5.65
2022-09-01T05:07:01.088Z,9.18
2022-09-01T05:09:36.110Z,8.30
2022-09-01T05:12:33.287Z,11.20
2022-09-01T05:15:04.133Z,12.20
2022-09-01T05:17:32.737Z,6.88
2022-09-01T05:20:01.685Z,6.88
2022-09-01T05:22:31.386Z,11.93
2022-09-01T05:25:14.160Z,7.82
2022-09-01T05:27:49.760Z,6.60
2022-09-01T05:30:19.762Z,8.43
2022-09-01T05:32:49.232Z,7.93
2022-09-01T05:35:18.975Z,7.78
2022-09-01T05:37:47.444Z,7.97
2022-09-01T05:40:16.515Z,9.98
2022-09-01T05:42:46.625Z,10.40
2022-09-01T05:45:15.352Z,12.52
2022-09-01T05:47:46.759Z,10.18
2022-09-01T05:52:47.989Z,11.00
2022-09-01T05:55:16.762Z,9.48
2022-09-01T05:57:48.087Z,7.28
2022-09-01T06:00:21.168Z,8.50
2022-09-01T06:02:53.812Z,10.55
2022-09-01T06:05:24.028Z,7.82
2022-09-01T06:10:32.351Z,9.05
2022-09-01T06:13:02.582Z,8.30
2022-09-01T06:15:34.669Z,6.22
2022-09-01T06:18:03.475Z,8.85
2022-09-01T06:20:34.598Z,8.95
2022-09-01T06:23:03.862Z,10.68
2022-09-01T06:25:33.092Z,10.15
2022-09-01T06:30:28.358Z,7.00
2022-09-01T06:33:09.512Z,6.35
2022-09-01T06:35:40.637Z,8.48
2022-09-01T06:38:12.043Z,13.95
2022-09-01T06:40:43.835Z,8.07
2022-09-01T06:43:17.352Z,7.80
2022-09-01T06:45:54.596Z,8.48
2022-09-01T06:48:25.601Z,7.28
2022-09-01T06:51:20.985Z,8.20
2022-09-01T06:53:56.805Z,5.28
2022-09-01T06:59:21.348Z,9.98
2022-09-01T07:02:01.322Z,7.18
2022-09-01T07:04:54.273Z,8.48
2022-09-01T07:13:38.709Z,8.20
2022-09-01T07:19:01.359Z,8.25
2022-09-01T07:21:42.029Z,7.05
2022-09-01T07:24:26.572Z,6.55
2022-09-01T07:27:18.701Z,9.38
2022-09-01T07:29:56.254Z,7.60
2022-09-01T07:35:20.018Z,8.57
2022-09-01T07:38:48.648Z,8.85
2022-09-01T07:39:57.562Z,10.30
2022-09-01T07:42:30.688Z,6.47
2022-09-01T07:43:57.468Z,9.75
2022-09-01T07:47:19.468Z,6.50
2022-09-01T07:50:11.395Z,8.65
2022-09-01T07:52:31.809Z,6.70
2022-09-01T07:55:03.759Z,8.93
2022-09-01T07:57:32.159Z,6.90
2022-09-01T08:00:00.858Z,6.32
2022-09-01T08:02:44.536Z,12.88
2022-09-01T08:05:22.467Z,6.82
2022-09-01T08:07:52.155Z,10.45
2022-09-01T08:10:22.876Z,7.05
2022-09-01T08:12:56.786Z,11.68
2022-09-01T08:16:06.696Z,12.20
2022-09-01T08:18:15.065Z,9.18
2022-09-01T08:20:48.360Z,10.32
2022-09-01T08:23:37.745Z,6.80
2022-09-01T08:26:08.176Z,12.63
2022-09-01T08:28:36.240Z,11.35
2022-09-01T08:31:11.433Z,9.43
2022-09-01T08:33:42.133Z,10.85
2022-09-01T08:36:13.121Z,6.68
2022-09-01T08:38:42.333Z,8.30
2022-09-01T08:41:35.416Z,7.40
2022-09-01T08:44:20.664Z,6.43
2022-09-01T08:47:15.351Z,7.45
2022-09-01T08:49:49.155Z,8.00
2022-09-01T08:52:45.914Z,7.22
2022-09-01T08:55:38.625Z,7.97
2022-09-01T08:58:10.859Z,7.57
2022-09-01T09:01:00.031Z,7.88
2022-09-01T09:03:57.595Z,8.95
2022-09-01T09:06:47.512Z,8.40
2022-09-01T09:09:16.090Z,7.40
2022-09-01T09:11:45.924Z,6.93
2022-09-01T09:14:42.468Z,9.88
2022-09-01T09:17:13.520Z,7.78
2022-09-01T09:19:44.095Z,7.05
2022-09-01T09:22:16.101Z,10.10
2022-09-01T09:25:17.519Z,9.15
2022-09-01T09:27:49.788Z,11.18
2022-09-01T09:30:26.631Z,9.73
2022-09-01T09:35:54.459Z,9.50
2022-09-01T09:38:33.041Z,7.55
2022-09-01T09:41:25.728Z,11.48
2022-09-01T09:44:25.706Z,10.80
2022-09-01T09:46:53.998Z,9.98
2022-09-01T09:49:34.579Z,8.05
2022-09-01T09:52:08.869Z,7.60
2022-09-01T09:55:05.983Z,9.20
2022-09-01T09:57:41.262Z,11.43
2022-09-01T10:00:25.765Z,7.47
2022-09-01T10:03:10.031Z,11.05
2022-09-01T10:05:45.020Z,10.13
2022-09-01T10:08:37.428Z,7.70
2022-09-01T10:11:06.086Z,6.22
2022-09-01T10:13:39.411Z,8.10
2022-09-01T10:16:21.848Z,9.60
2022-09-01T10:18:52.410Z,10.38
2022-09-01T10:21:41.788Z,9.95
2022-09-01T10:24:31.125Z,7.95
2022-09-01T10:27:03.214Z,12.50
2022-09-01T10:29:50.826Z,10.38
2022-09-01T10:32:38.288Z,8.70
2022-09-01T10:35:43.725Z,9.52
2022-09-01T10:38:24.698Z,9.45
2022-09-01T10:41:09.094Z,7.03
2022-09-01T10:43:48.988Z,9.45
2022-09-01T10:46:25.999Z,10.15
2022-09-01T10:49:03.122Z,7.57
2022-09-01T10:51:50.466Z,11.55
2022-09-01T10:54:55.759Z,7.25
2022-09-01T10:57:55.856Z,6.93
2022-09-01T11:00:39.829Z,8.95
2022-09-01T11:03:31.548Z,6.65
2022-09-01T11:06:14.405Z,7.88
2022-09-01T11:08:51.127Z,7.38
2022-09-01T11:11:45.312Z,9.90
2022-09-01T11:14:28.680Z,7.75
2022-09-01T11:17:25.567Z,7.13
2022-09-01T11:20:11.260Z,8.38
2022-09-01T11:22:43.528Z,10.70
2022-09-01T11:25:41.382Z,10.25
2022-09-01T11:28:17.836Z,9.65
2022-09-01T11:31:28.366Z,9.05
2022-09-01T11:34:29.612Z,6.22
2022-09-01T11:37:01.264Z,7.60
2022-09-01T11:39:48.691Z,6.82
2022-09-01T11:42:27.314Z,6.47
2022-09-01T11:44:59.515Z,9.85
2022-09-01T11:47:41.589Z,7.20
2022-09-01T11:50:27.634Z,6.63
2022-09-01T11:53:05.241Z,9.02
2022-09-01T11:55:37.015Z,7.72
2022-09-01T11:58:06.817Z,6.55
2022-09-01T12:00:38.424Z,7.65
2022-09-01T12:03:26.895Z,6.20
2022-09-01T12:06:05.615Z,10.10
2022-09-01T12:08:51.643Z,6.53
2022-09-01T12:11:27.597Z,9.52
2022-09-01T12:14:01.356Z,8.38
2022-09-01T12:16:34.922Z,6.32
2022-09-01T12:19:05.559Z,6.20
2022-09-01T12:21:43.747Z,7.60
2022-09-01T12:24:24.994Z,7.53
2022-09-01T12:26:59.166Z,7.55
2022-09-01T12:29:32.018Z,7.68
2022-09-01T12:32:01.846Z,13.57
2022-09-01T12:34:43.002Z,7.60
2022-09-01T12:37:14.636Z,9.27
2022-09-01T12:39:51.594Z,7.93
2022-09-01T12:42:19.554Z,8.45
2022-09-01T12:44:54.858Z,9.50
2022-09-01T12:47:36.177Z,8.25
2022-09-01T12:50:13.816Z,6.57
2022-09-01T12:53:02.108Z,6.45
2022-09-01T12:55:51.013Z,7.85
2022-09-01T12:58:25.906Z,8.10
2022-09-01T13:01:08.881Z,11.55
2022-09-01T13:04:13.436Z,6.70
2022-09-01T13:06:43.830Z,9.60
2022-09-01T13:09:17.022Z,13.30
2022-09-01T13:12:06.715Z,9.05
2022-09-01T13:14:35.626Z,9.13
2022-09-01T13:17:05.020Z,7.32
2022-09-01T13:19:33.714Z,7.85
2022-09-01T13:22:02.361Z,10.32
2022-09-01T13:24:31.948Z,10.10
2022-09-01T13:29:50.493Z,9.75
2022-09-01T13:32:21.677Z,8.67
2022-09-01T13:34:53.171Z,11.95
2022-09-01T13:37:22.751Z,8.35
2022-09-01T13:39:51.138Z,8.10
2022-09-01T13:42:20.122Z,8.85
2022-09-01T13:44:52.352Z,7.63
2022-09-01T13:47:31.794Z,9.38
2022-09-01T13:50:19.884Z,5.55
2022-09-01T13:52:56.699Z,7.85
2022-09-01T13:55:30.882Z,6.70
2022-09-01T14:00:32.267Z,6.40
2022-09-01T14:03:04.048Z,8.00
2022-09-01T14:05:35.640Z,5.93
2022-09-01T14:08:05.244Z,7.15
2022-09-01T14:10:33.957Z,8.63
2022-09-01T14:13:02.136Z,7.55
2022-09-01T14:15:30.294Z,8.27
2022-09-01T14:18:01.969Z,7.60
2022-09-01T14:20:36.916Z,8.32
2022-09-01T14:23:10.977Z,6.97
2022-09-01T14:25:47.809Z,6.25
2022-09-01T14:28:20.632Z,7.32
2022-09-01T14:33:19.022Z,7.30
2022-09-01T14:35:50.108Z,7.32
2022-09-01T14:38:18.430Z,6.95
2022-09-01T14:40:49.331Z,5.97
2022-09-01T14:43:17.999Z,8.45
2022-09-01T14:45:47.606Z,8.70
2022-09-01T14:48:20.899Z,8.65
2022-09-01T14:50:53.746Z,8.70
2022-09-01T14:53:24.210Z,7.32
2022-09-01T14:55:56.953Z,6.43
2022-09-01T14:58:26.653Z,6.95
2022-09-01T15:01:11.892Z,7.95
2022-09-01T15:03:49.072Z,7.22
2022-09-01T15:06:23.972Z,7.65
2022-09-01T15:08:53.498Z,8.10
2022-09-01T15:11:22.047Z,9.48
2022-09-01T15:13:53.916Z,10.13
2022-09-01T15:16:25.963Z,11.32
2022-09-01T15:18:55.964Z,15.05
2022-09-01T15:21:28.422Z,17.65
2022-09-01T15:23:57.484Z,8.32
2022-09-01T15:28:54.958Z,7.63
2022-09-01T15:31:32.839Z,8.43
2022-09-01T15:34:06.607Z,7.80
2022-09-01T15:36:46.720Z,7.32
2022-09-01T15:39:17.385Z,7.43
2022-09-01T15:41:46.135Z,8.05
2022-09-01T15:44:15.960Z,7.75
2022-09-01T15:46:45.037Z,9.15
2022-09-01T15:49:14.106Z,9.45
2022-09-01T15:51:45.626Z,8.02
2022-09-01T15:54:16.500Z,9.85
2022-09-01T15:56:47.462Z,8.70
2022-09-01T15:59:17.521Z,9.68
2022-09-01T16:01:47.168Z,10.93
2022-09-01T16:04:19.861Z,9.10
2022-09-01T16:06:51.764Z,6.78
2022-09-01T16:09:22.820Z,8.00
2022-09-01T16:11:51.639Z,8.18
2022-09-01T16:14:23.709Z,8.80
2022-09-01T16:17:09.490Z,9.27
2022-09-01T16:19:53.563Z,9.38
2022-09-01T16:22:28.232Z,10.00
2022-09-01T16:25:01.251Z,9.40
2022-09-01T16:27:46.688Z,10.63
2022-09-01T16:30:22.503Z,7.50
2022-09-01T16:32:51.683Z,9.63
2022-09-01T16:35:28.685Z,8.73
2022-09-01T16:38:17.145Z,9.02
2022-09-01T16:40:49.196Z,8.93
2022-09-01T16:43:32.076Z,10.20
2022-09-01T16:46:07.779Z,11.10
2022-09-01T16:49:00.664Z,11.43
2022-09-01T16:51:42.529Z,9.23
2022-09-01T16:54:35.089Z,12.43
2022-09-01T16:57:22.841Z,14.20
2022-09-01T17:00:03.007Z,8.95
2022-09-01T17:02:46.860Z,9.18
2022-09-01T17:05:32.499Z,13.15
2022-09-01T17:08:07.002Z,13.13
2022-09-01T17:10:35.443Z,13.52
2022-09-01T17:13:28.402Z,9.40
2022-09-01T17:16:11.929Z,11.32
2022-09-01T17:18:42.778Z,10.82
2022-09-01T17:21:18.770Z,10.00
2022-09-01T17:24:14.144Z,9.25
2022-09-01T17:26:47.843Z,15.70
2022-09-01T17:29:43.611Z,13.57
2022-09-01T17:32:36.720Z,9.63
2022-09-01T17:35:19.315Z,9.70
2022-09-01T17:37:56.207Z,8.68
2022-09-01T17:40:40.023Z,8.35
2022-09-01T17:43:26.151Z,10.15
2022-09-01T17:46:29.557Z,9.73
2022-09-01T17:52:19.199Z,10.32
2022-09-01T17:54:57.474Z,20.40
2022-09-01T17:57:51.049Z,20.55
2022-09-01T18:00:25.061Z,25.52
2022-09-01T18:02:53.014Z,12.50
2022-09-01T18:05:24.577Z,21.98
2022-09-01T18:08:01.290Z,9.95
2022-09-01T18:10:52.888Z,10.43
2022-09-01T18:16:23.562Z,12.32
2022-09-01T18:18:53.361Z,11.85
2022-09-01T18:21:35.994Z,14.38
2022-09-01T18:24:17.157Z,12.48
2022-09-01T18:26:48.448Z,14.57
2022-09-01T18:29:16.461Z,14.80
2022-09-01T18:32:06.742Z,13.48
2022-09-01T18:34:34.975Z,12.35
2022-09-01T18:37:22.634Z,13.98
2022-09-01T18:40:01.902Z,13.32
2022-09-01T18:42:39.817Z,11.75
2022-09-01T18:45:23.629Z,16.23
2022-09-01T18:48:06.428Z,14.15
2022-09-01T18:50:45.637Z,17.58
2022-09-01T18:53:27.409Z,19.33
2022-09-01T18:56:06.074Z,22.73
2022-09-01T18:58:45.886Z,18.42
2022-09-01T19:01:17.234Z,14.75
2022-09-01T19:06:32.476Z,13.65
2022-09-01T19:09:12.598Z,12.20
2022-09-01T19:12:05.775Z,12.25
2022-09-01T19:14:46.591Z,38.05
2022-09-01T19:19:57.811Z,24.45
2022-09-01T19:22:43.245Z,12.18
2022-09-01T19:25:34.411Z,9.88
2022-09-01T19:28:31.674Z,13.80
2022-09-01T19:31:45.189Z,9.15
2022-09-01T19:34:16.519Z,12.45
2022-09-01T19:36:47.751Z,12.07
2022-09-01T19:39:22.044Z,15.55
2022-09-01T19:42:07.984Z,13.43
2022-09-01T19:45:35.170Z,15.02
2022-09-01T19:48:06.573Z,16.50
2022-09-01T19:50:58.756Z,11.85
2022-09-01T19:56:13.286Z,12.02
2022-09-01T19:58:59.161Z,12.27
2022-09-01T20:01:48.234Z,10.20
2022-09-01T20:04:45.725Z,9.32
2022-09-01T20:08:21.575Z,12.75
2022-09-01T20:11:10.849Z,10.27
2022-09-01T20:13:55.035Z,15.80
2022-09-01T20:16:45.615Z,11.18
2022-09-01T20:19:28.887Z,8.40
2022-09-01T20:22:20.293Z,8.68
2022-09-01T20:24:49.006Z,10.73
2022-09-01T20:27:32.731Z,14.25
2022-09-01T20:30:09.698Z,10.70
2022-09-01T20:33:00.391Z,15.32
2022-09-01T20:35:44.472Z,14.73
2022-09-01T20:38:52.844Z,22.20
2022-09-01T20:41:30.659Z,21.38
2022-09-01T20:44:19.160Z,28.80
2022-09-01T20:47:07.101Z,12.32
2022-09-01T20:49:38.492Z,13.27
2022-09-01T20:52:23.471Z,10.73
2022-09-01T20:55:08.957Z,12.65
2022-09-01T20:58:00.779Z,11.88
2022-09-01T21:00:36.509Z,12.60
2022-09-01T21:03:54.616Z,13.10
2022-09-01T21:06:48.771Z,10.15
2022-09-01T21:09:53.860Z,10.90
2022-09-01T21:12:35.585Z,10.88
2022-09-01T21:15:25.177Z,10.18
2022-09-01T21:18:00.298Z,16.17
2022-09-01T21:20:43.872Z,13.90
2022-09-01T21:23:16.154Z,13.20
2022-09-01T21:25:45.000Z,14.02
2022-09-01T21:28:19.674Z,13.20
2022-09-01T21:30:54.189Z,12.93
2022-09-01T21:33:32.062Z,12.95
2022-09-01T21:36:01.295Z,13.65
2022-09-01T21:38:29.567Z,12.32
2022-09-01T21:41:00.821Z,15.68
2022-09-01T21:43:34.721Z,15.65
2022-09-01T21:46:03.343Z,13.68
2022-09-01T21:48:31.812Z,14.30
2022-09-01T21:50:59.616Z,14.93
2022-09-01T21:53:28.015Z,16.08
2022-09-01T21:55:56.262Z,18.08
2022-09-01T21:58:24.179Z,18.73
2022-09-01T22:00:54.626Z,20.98
2022-09-01T22:03:22.893Z,12.73
2022-09-01T22:05:53.935Z,19.83
2022-09-01T22:08:22.007Z,16.33
2022-09-01T22:10:52.271Z,15.45
2022-09-01T22:13:22.633Z,20.45
2022-09-01T22:15:53.633Z,18.58
2022-09-01T22:18:22.816Z,18.38
2022-09-01T22:20:50.742Z,18.83
2022-09-01T22:23:20.765Z,15.85
2022-09-01T22:25:52.046Z,17.27
2022-09-01T22:28:20.344Z,21.77
2022-09-01T22:33:20.198Z,17.10
2022-09-01T22:35:51.733Z,22.10
2022-09-01T22:38:22.853Z,20.02
2022-09-01T22:40:55.856Z,17.80
2022-09-01T22:43:30.388Z,19.67
2022-09-01T22:45:59.877Z,18.85
2022-09-01T22:48:28.934Z,18.15
2022-09-01T22:50:56.990Z,20.55
2022-09-01T22:53:26.370Z,23.05
2022-09-01T22:55:55.163Z,18.42
2022-09-01T22:58:24.104Z,16.33
2022-09-01T23:00:56.748Z,19.55
2022-09-01T23:03:27.021Z,17.65
2022-09-01T23:06:09.011Z,19.05
2022-09-01T23:08:38.134Z,20.30
2022-09-01T23:11:09.858Z,18.08
2022-09-01T23:13:42.558Z,26.92
2022-09-01T23:16:14.939Z,20.20
2022-09-01T23:18:45.864Z,21.95
2022-09-01T23:21:17.277Z,18.67
2022-09-01T23:23:47.344Z,18.95
2022-09-01T23:26:17.161Z,17.95
2022-09-01T23:31:02.254Z,19.08
2022-09-01T23:33:30.948Z,16.45
2022-09-01T23:36:00.109Z,18.25
2022-09-01T23:38:28.894Z,15.80
2022-09-01T23:40:56.922Z,16.05
2022-09-01T23:43:27.553Z,16.13
2022-09-01T23:45:56.940Z,17.17
2022-09-01T23:48:25.861Z,18.00
2022-09-01T23:51:00.239Z,13.85
2022-09-01T23:53:31.851Z,18.30
2022-09-01T23:58:33.199Z,14.43
